Terminal Aerodrome Forecast
Issued by NWS Sterling, VA

Current Version | Previous Version | Graphics & Text | Print | Product List | Glossary On
Versions: 1 2 3 4 5 6 7 8 9 10 11 12 13 14
000
FTUS41 KLWX 181700
TAFMRB
TAF
KMRB 181720Z 1818/1918 35004KT P6SM BKN050
     FM182300 VRB03KT P6SM SCT050
     FM190800 VRB03KT 5SM BR BKN050
     FM191200 VRB03KT P6SM BKN050
     FM191500 05005KT P6SM BKN050=

USA.gov is the U.S. government's official web portal to all federal, state and local government web resources and services.